Time;durP1;ratioP1;P1;durP2;ratioP2;P2;SDS_P1;SDS_P2;PMS_P1;PMS_P2;Temp;Humidity;BMP_temperature;BMP_pressure;BME280_temperature;BME280_humidity;BME280_pressure;Samples;Min_cycle;Max_cycle;Signal;HPM_P1;HPM_P2
2022/07/24 00:01:40;;;;;;;9.55;8.65;;;;;;;17.50;98.02;101844.22;5028051;28;20025;-58
2022/07/24 00:04:05;;;;;;;10.70;9.60;;;;;;;17.45;98.30;101843.25;5027972;28;20481;-57
2022/07/24 00:06:31;;;;;;;10.93;9.18;;;;;;;17.42;98.65;101850.16;5027952;28;20100;-57
2022/07/24 00:08:57;;;;;;;10.48;9.52;;;;;;;17.39;98.73;101846.66;5028139;28;20026;-58
2022/07/24 00:11:22;;;;;;;10.07;9.07;;;;;;;17.37;99.55;101842.22;5027428;28;20071;-56
2022/07/24 00:13:47;;;;;;;10.35;9.52;;;;;;;17.33;99.74;101841.28;5028227;28;20033;-58
2022/07/24 00:16:13;;;;;;;10.02;8.75;;;;;;;17.32;100.00;101842.16;5027622;28;20033;-58
2022/07/24 00:18:38;;;;;;;9.23;8.43;;;;;;;17.32;99.78;101839.53;5013709;28;20100;-57
2022/07/24 00:21:04;;;;;;;10.52;9.43;;;;;;;17.34;99.81;101836.94;5028152;28;20426;-57
2022/07/24 00:23:29;;;;;;;11.38;10.27;;;;;;;17.36;98.55;101835.22;5027382;28;20341;-58
2022/07/24 00:25:55;;;;;;;10.85;9.75;;;;;;;17.37;98.47;101831.75;5027533;28;20033;-58
2022/07/24 00:28:20;;;;;;;9.65;8.82;;;;;;;17.40;98.59;101831.78;5016986;28;20492;-58
2022/07/24 00:30:46;;;;;;;10.10;9.20;;;;;;;17.42;98.80;101829.19;5025266;28;20025;-57
2022/07/24 00:33:12;;;;;;;11.68;10.57;;;;;;;17.43;98.24;101829.22;5027367;28;20112;-57
2022/07/24 00:35:37;;;;;;;10.55;9.52;;;;;;;17.43;97.65;101828.38;5027821;28;20108;-58
2022/07/24 00:38:03;;;;;;;11.50;10.38;;;;;;;17.44;97.41;101833.63;5027362;28;20092;-57
2022/07/24 00:40:29;;;;;;;10.65;9.63;;;;;;;17.44;97.00;101828.38;5027733;28;20033;-56
2022/07/24 00:42:56;;;;;;;11.00;9.90;;;;;;;17.47;97.34;101832.78;5027243;28;20064;-58
2022/07/24 00:45:21;;;;;;;11.02;10.02;;;;;;;17.46;97.51;101826.69;5027664;28;20030;-58
2022/07/24 00:47:47;;;;;;;10.77;9.73;;;;;;;17.45;97.17;101838.00;5024616;28;20553;-57
2022/07/24 00:50:12;;;;;;;12.10;11.00;;;;;;;17.45;97.06;101839.75;5016409;28;20109;-56
2022/07/24 00:52:38;;;;;;;10.57;9.60;;;;;;;17.45;97.48;101842.38;5026319;28;20386;-57
2022/07/24 00:55:05;;;;;;;10.73;9.82;;;;;;;17.43;96.63;101837.09;5027852;28;20389;-57
2022/07/24 00:57:30;;;;;;;10.45;9.40;;;;;;;17.39;97.06;101833.56;5013948;28;20030;-57
2022/07/24 00:59:56;;;;;;;10.90;9.93;;;;;;;17.38;97.03;101838.75;5026548;28;20111;-56
2022/07/24 01:02:22;;;;;;;10.93;9.85;;;;;;;17.36;96.87;101830.00;5027577;28;20029;-58
2022/07/24 01:04:49;;;;;;;11.38;10.05;;;;;;;17.37;97.20;101837.88;5027389;28;20029;-57
2022/07/24 01:07:15;;;;;;;10.27;9.38;;;;;;;17.37;97.16;101827.41;5027261;28;20132;-57
2022/07/24 01:09:41;;;;;;;11.18;10.27;;;;;;;17.34;96.67;101831.69;5026895;28;20018;-58
2022/07/24 01:12:07;;;;;;;11.88;10.88;;;;;;;17.30;96.75;101829.84;5030683;28;20026;-58
2022/07/24 01:14:32;;;;;;;11.98;10.80;;;;;;;17.27;96.97;101828.94;5030437;28;20059;-58
2022/07/24 01:16:58;;;;;;;10.05;9.27;;;;;;;17.28;97.47;101821.97;5024898;28;20088;-56
2022/07/24 01:19:23;;;;;;;10.23;9.35;;;;;;;17.27;97.59;101826.31;5017462;28;20017;-57
2022/07/24 01:21:53;;;;;;;12.80;10.52;;;;;;;17.25;98.26;101828.00;5030523;28;20025;-58
2022/07/24 01:24:19;;;;;;;11.55;10.50;;;;;;;17.26;97.77;101819.31;5030123;28;20021;-57
2022/07/24 01:26:45;;;;;;;11.27;10.05;;;;;;;17.22;97.34;101822.72;5030683;28;20080;-57
2022/07/24 01:29:10;;;;;;;11.30;10.30;;;;;;;17.21;97.43;101814.84;5030328;28;20057;-56
2022/07/24 01:31:36;;;;;;;11.07;10.07;;;;;;;17.18;97.91;101810.41;5029194;28;20057;-57
2022/07/24 01:34:01;;;;;;;11.18;10.18;;;;;;;17.16;98.51;101806.91;5030171;28;20017;-58
2022/07/24 01:36:27;;;;;;;11.57;10.45;;;;;;;17.16;98.24;101804.28;5030038;28;20060;-58
2022/07/24 01:38:52;;;;;;;11.55;10.55;;;;;;;17.14;98.23;101806.84;5029901;28;20418;-58
2022/07/24 01:41:17;;;;;;;11.82;10.65;;;;;;;17.12;98.09;101807.69;5029678;28;20042;-57
2022/07/24 01:43:43;;;;;;;12.15;11.05;;;;;;;17.07;97.79;101802.31;5030108;28;20484;-56
2022/07/24 01:46:09;;;;;;;11.73;10.55;;;;;;;17.05;97.92;101804.03;5029283;28;20010;-57
2022/07/24 01:48:35;;;;;;;12.70;11.45;;;;;;;17.03;98.07;101801.41;5030096;28;20363;-58
2022/07/24 01:51:00;;;;;;;11.85;10.65;;;;;;;17.05;98.19;101799.66;5029713;28;20021;-58
2022/07/24 01:53:25;;;;;;;11.13;10.10;;;;;;;17.10;97.80;101806.75;5030152;28;20493;-58
2022/07/24 01:55:52;;;;;;;10.32;9.32;;;;;;;17.08;98.58;101803.19;5029767;28;20021;-58
2022/07/24 01:58:18;;;;;;;10.73;9.63;;;;;;;17.01;99.55;101797.84;5028686;28;20021;-57
2022/07/24 02:00:45;;;;;;;11.40;10.38;;;;;;;16.97;99.56;101803.88;5029356;28;20079;-57
2022/07/24 02:03:10;;;;;;;10.63;9.60;;;;;;;16.95;99.16;101796.81;5029384;28;20504;-57
2022/07/24 02:05:35;;;;;;;11.52;10.30;;;;;;;16.95;99.96;101800.34;5029206;28;20049;-57
2022/07/24 02:08:00;;;;;;;11.93;9.93;;;;;;;16.94;99.30;101801.19;5029328;28;20363;-57
2022/07/24 02:10:28;;;;;;;12.00;9.35;;;;;;;16.92;100.00;101800.28;5028888;28;20052;-58
2022/07/24 02:12:55;;;;;;;10.63;9.73;;;;;;;16.90;100.00;101802.88;5029581;28;20434;-57
2022/07/24 02:15:22;;;;;;;9.82;9.02;;;;;;;16.87;100.00;101801.91;5015369;28;20033;-58
2022/07/24 02:17:49;;;;;;;11.38;10.32;;;;;;;16.80;100.00;101804.38;5017004;28;20022;-57
2022/07/24 02:20:14;;;;;;;10.88;9.77;;;;;;;16.77;100.00;101806.94;5023398;28;20037;-57
2022/07/24 02:22:40;;;;;;;10.73;9.77;;;;;;;16.71;100.00;101804.22;5028190;28;20466;-58
2022/07/24 02:25:06;;;;;;;10.57;9.60;;;;;;;16.67;100.00;101803.25;5029225;28;20064;-56
2022/07/24 02:27:32;;;;;;;10.38;9.40;;;;;;;16.63;100.00;101811.88;5028816;28;20028;-57
2022/07/24 02:29:57;;;;;;;11.32;10.30;;;;;;;16.55;100.00;101803.84;5029051;28;20461;-57
2022/07/24 02:32:22;;;;;;;11.25;10.25;;;;;;;16.47;100.00;101800.19;5029105;28;20359;-58
2022/07/24 02:34:48;;;;;;;10.20;9.32;;;;;;;16.41;100.00;101798.31;5028945;28;20042;-56
2022/07/24 02:37:14;;;;;;;11.23;10.13;;;;;;;16.38;100.00;101799.97;5028791;28;20395;-57
2022/07/24 02:39:39;;;;;;;11.65;10.55;;;;;;;16.36;100.00;101794.72;5028806;28;20509;-57
2022/07/24 02:42:04;;;;;;;10.70;9.70;;;;;;;16.33;100.00;101798.13;5028994;28;20095;-57
2022/07/24 02:44:31;;;;;;;11.07;9.98;;;;;;;16.33;100.00;101803.34;5023935;28;20026;-57
2022/07/24 02:46:56;;;;;;;11.45;9.60;;;;;;;16.33;100.00;101800.75;5018788;28;20053;-58
2022/07/24 02:49:21;;;;;;;11.30;10.27;;;;;;;16.28;100.00;101804.97;5028508;28;20064;-57
2022/07/24 02:51:47;;;;;;;12.05;10.77;;;;;;;16.24;100.00;101811.00;5028852;28;20064;-57
2022/07/24 02:54:12;;;;;;;11.57;10.48;;;;;;;16.19;100.00;101812.63;5028460;28;20124;-57
2022/07/24 02:56:37;;;;;;;10.77;9.88;;;;;;;16.15;100.00;101818.63;5028578;28;20017;-57
2022/07/24 02:59:03;;;;;;;11.88;9.93;;;;;;;16.11;100.00;101811.53;5028352;28;20026;-57
2022/07/24 03:01:28;;;;;;;10.20;9.25;;;;;;;16.08;100.00;101812.38;5028816;28;20060;-57
2022/07/24 03:03:53;;;;;;;11.13;10.07;;;;;;;16.03;100.00;101814.84;5028428;28;20028;-56
2022/07/24 03:06:19;;;;;;;10.80;9.80;;;;;;;15.99;100.00;101807.75;5028277;28;20036;-56
2022/07/24 03:08:44;;;;;;;9.98;8.98;;;;;;;15.97;100.00;101805.09;5028128;28;20528;-58
2022/07/24 03:11:09;;;;;;;11.00;10.00;;;;;;;15.93;100.00;101813.72;5028440;28;20033;-58
2022/07/24 03:13:34;;;;;;;10.52;9.50;;;;;;;15.91;100.00;101809.28;5028084;28;20671;-56
2022/07/24 03:16:00;;;;;;;10.27;9.27;;;;;;;15.90;100.00;101802.31;5028120;28;20071;-57
2022/07/24 03:18:25;;;;;;;12.70;10.25;;;;;;;15.90;100.00;101802.31;5014447;28;20025;-58
2022/07/24 03:20:50;;;;;;;10.45;9.48;;;;;;;15.91;100.00;101798.81;5027411;28;20509;-57
2022/07/24 03:23:16;;;;;;;10.80;9.82;;;;;;;15.90;100.00;101802.31;5028429;28;20037;-58
2022/07/24 03:25:42;;;;;;;11.32;10.18;;;;;;;15.88;100.00;101802.28;5028191;28;20100;-57
2022/07/24 03:28:07;;;;;;;11.23;10.23;;;;;;;15.86;100.00;101798.72;5027953;28;20033;-56
2022/07/24 03:30:33;;;;;;;11.63;10.55;;;;;;;15.85;100.00;101797.84;5027614;28;20079;-57
2022/07/24 03:32:58;;;;;;;11.73;10.05;;;;;;;15.85;100.00;101795.22;5019422;28;20386;-58
2022/07/24 03:35:23;;;;;;;11.50;10.38;;;;;;;15.84;100.00;101801.31;5018981;28;20029;-58
2022/07/24 03:37:48;;;;;;;12.82;11.63;;;;;;;15.83;100.00;101807.34;5026126;28;20024;-57
2022/07/24 03:40:14;;;;;;;11.82;10.75;;;;;;;15.84;100.00;101811.75;5026578;28;20026;-58
2022/07/24 03:42:39;;;;;;;13.10;11.75;;;;;;;15.84;100.00;101808.25;5025822;28;20037;-58
2022/07/24 03:45:05;;;;;;;13.05;11.80;;;;;;;15.84;100.00;101801.31;5026354;28;20031;-56
2022/07/24 03:47:31;;;;;;;14.07;12.68;;;;;;;15.85;100.00;101810.91;5012628;28;20089;-57
2022/07/24 03:49:56;;;;;;;15.98;14.32;;;;;;;15.85;100.00;101805.69;5026362;28;20032;-56
2022/07/24 03:52:21;;;;;;;14.68;13.27;;;;;;;15.86;100.00;101798.72;5026747;28;20025;-58
2022/07/24 03:54:48;;;;;;;14.82;13.32;;;;;;;15.89;100.00;101800.50;5026115;28;20468;-58
2022/07/24 03:57:13;;;;;;;15.93;14.38;;;;;;;15.90;100.00;101794.47;5027928;28;20401;-57
2022/07/24 03:59:38;;;;;;;16.92;15.23;;;;;;;15.92;100.00;101792.78;5027447;28;20032;-57
2022/07/24 04:02:05;;;;;;;17.80;16.10;;;;;;;15.90;100.00;101787.47;5027895;28;20476;-56
2022/07/24 04:04:30;;;;;;;18.23;16.40;;;;;;;15.90;100.00;101782.25;5027873;28;20033;-57
2022/07/24 04:06:55;;;;;;;19.15;17.08;;;;;;;15.92;100.00;101790.16;5028031;28;20039;-57
2022/07/24 04:09:20;;;;;;;20.05;17.42;;;;;;;15.91;100.00;101791.88;5027587;28;20465;-57
2022/07/24 04:11:46;;;;;;;18.95;17.08;;;;;;;15.94;100.00;101793.66;5027322;28;20155;-56
2022/07/24 04:14:12;;;;;;;20.08;18.17;;;;;;;15.95;100.00;101790.22;5027566;28;20380;-56
2022/07/24 04:16:37;;;;;;;20.25;17.40;;;;;;;15.94;100.00;101797.19;5027256;28;20033;-57
2022/07/24 04:19:03;;;;;;;19.52;17.70;;;;;;;15.94;100.00;101785.84;5027474;28;20104;-58
2022/07/24 04:21:28;;;;;;;20.50;18.30;;;;;;;15.94;100.00;101793.66;5026786;28;20033;-57
2022/07/24 04:23:53;;;;;;;19.90;17.90;;;;;;;15.93;100.00;101792.81;5013372;28;20052;-57
2022/07/24 04:26:19;;;;;;;22.33;20.13;;;;;;;15.92;100.00;101792.78;5027710;28;20040;-57
2022/07/24 04:28:44;;;;;;;22.13;19.75;;;;;;;15.92;100.00;101796.25;5027486;28;20026;-57
2022/07/24 04:31:10;;;;;;;22.10;19.83;;;;;;;15.94;100.00;101798.91;5027560;28;20092;-57
2022/07/24 04:33:36;;;;;;;23.98;21.50;;;;;;;15.97;100.00;101804.22;5026992;28;20501;-57
2022/07/24 04:36:03;;;;;;;22.65;20.30;;;;;;;16.00;100.00;101811.28;5027503;28;20021;-57
2022/07/24 04:38:28;;;;;;;24.90;22.30;;;;;;;16.02;100.00;101806.97;5027294;28;20116;-57
2022/07/24 04:40:54;;;;;;;25.17;22.67;;;;;;;16.05;100.00;101807.03;5026792;28;20624;-57
2022/07/24 04:43:19;;;;;;;27.95;25.00;;;;;;;16.05;100.00;101802.72;5027047;28;20140;-56
2022/07/24 04:45:44;;;;;;;27.40;24.13;;;;;;;16.09;100.00;101808.91;5029191;28;20021;-57
2022/07/24 04:48:10;;;;;;;27.27;24.60;;;;;;;16.11;100.00;101801.97;5031323;28;20029;-57
2022/07/24 04:50:35;;;;;;;28.75;26.02;;;;;;;16.15;100.00;101808.16;5030242;28;20079;-57
2022/07/24 04:53:00;;;;;;;30.80;27.58;;;;;;;16.18;100.00;101809.13;5031206;28;20025;-57
2022/07/24 04:55:26;;;;;;;30.45;27.20;;;;;;;16.22;100.00;101799.63;5030558;28;20033;-58
2022/07/24 04:57:51;;;;;;;30.25;27.30;;;;;;;16.25;100.00;101801.41;5030962;28;20536;-57
2022/07/24 05:00:16;;;;;;;29.70;26.80;;;;;;;16.28;100.00;101815.44;5030556;28;20029;-57
2022/07/24 05:02:42;;;;;;;28.35;25.50;;;;;;;16.32;100.00;101805.94;5031429;28;20078;-58
2022/07/24 05:05:07;;;;;;;30.15;26.75;;;;;;;16.38;100.00;101813.06;5030923;28;20025;-57
2022/07/24 05:07:33;;;;;;;31.33;28.00;;;;;;;16.41;100.00;101800.03;5030756;28;20040;-57
2022/07/24 05:09:59;;;;;;;30.60;27.42;;;;;;;16.43;100.00;101808.81;5016549;28;20450;-58
2022/07/24 05:12:25;;;;;;;31.00;27.90;;;;;;;16.48;100.00;101801.94;5030236;28;20039;-57
2022/07/24 05:14:51;;;;;;;32.13;27.45;;;;;;;16.54;100.00;101803.81;5030371;28;20025;-57
2022/07/24 05:17:16;;;;;;;30.40;27.42;;;;;;;16.59;100.00;101801.28;5022527;28;20022;-57
2022/07/24 05:19:41;;;;;;;31.45;28.00;;;;;;;16.63;100.00;101797.91;5020466;28;20021;-58
2022/07/24 05:22:07;;;;;;;30.88;27.88;;;;;;;16.69;100.00;101803.28;5030695;28;20022;-57
2022/07/24 05:24:32;;;;;;;32.65;29.48;;;;;;;16.69;100.00;101800.69;5030284;28;20028;-58
2022/07/24 05:26:58;;;;;;;32.88;29.48;;;;;;;16.76;100.00;101812.16;5030316;28;20029;-58
2022/07/24 05:29:24;;;;;;;31.55;27.92;;;;;;;16.86;100.00;101813.22;5029878;28;20014;-58
2022/07/24 05:31:51;;;;;;;32.70;27.85;;;;;;;16.95;100.00;101813.41;5030143;28;20520;-58
2022/07/24 05:34:16;;;;;;;32.63;28.52;;;;;;;17.04;100.00;101808.38;5030215;28;20028;-57
2022/07/24 05:36:42;;;;;;;31.08;28.02;;;;;;;17.14;100.00;101808.59;5026793;28;20033;-57
2022/07/24 05:39:07;;;;;;;31.17;28.10;;;;;;;17.24;100.00;101817.50;5013722;28;20084;-58
2022/07/24 05:41:32;;;;;;;29.85;26.58;;;;;;;17.32;100.00;101817.69;5010726;28;20111;-58
2022/07/24 05:43:58;;;;;;;30.35;27.27;;;;;;;17.43;100.00;101815.25;5023332;28;20024;-57
2022/07/24 05:46:23;;;;;;;29.98;26.88;;;;;;;17.55;100.00;101815.50;5010872;28;20030;-57
2022/07/24 05:48:48;;;;;;;27.30;24.65;;;;;;;17.68;100.00;101816.59;5009509;28;20018;-57
2022/07/24 05:51:14;;;;;;;27.48;24.80;;;;;;;17.77;100.00;101816.75;5010489;28;20300;-58
2022/07/24 05:53:39;;;;;;;29.23;26.23;;;;;;;17.87;100.00;101822.16;5025057;28;20469;-56
2022/07/24 05:56:04;;;;;;;29.17;26.17;;;;;;;17.95;100.00;101828.41;5024960;28;20022;-57
2022/07/24 05:58:30;;;;;;;27.23;24.45;;;;;;;18.05;100.00;101815.44;5024122;28;20033;-57
2022/07/24 06:00:55;;;;;;;25.60;22.88;;;;;;;18.17;100.00;101810.44;5027731;28;20021;-57
2022/07/24 06:03:21;;;;;;;23.77;21.25;;;;;;;18.28;99.95;101814.97;5023756;28;20026;-58
2022/07/24 06:05:46;;;;;;;23.25;21.00;;;;;;;18.40;98.56;101816.91;5026260;28;20078;-57
2022/07/24 06:08:11;;;;;;;23.17;20.67;;;;;;;18.52;96.41;101821.44;5025409;28;20033;-57
2022/07/24 06:10:37;;;;;;;22.88;20.50;;;;;;;18.64;95.10;101826.84;5024075;28;20025;-58
2022/07/24 06:13:02;;;;;;;22.02;19.77;;;;;;;18.76;94.09;101827.91;5027675;28;20025;-58
2022/07/24 06:15:28;;;;;;;22.55;19.73;;;;;;;18.77;90.64;101827.03;5024723;28;20509;-58
2022/07/24 06:17:54;;;;;;;23.13;20.15;;;;;;;18.87;90.67;101834.16;5023694;28;20018;-57
2022/07/24 06:20:19;;;;;;;21.77;19.67;;;;;;;18.93;89.93;101821.13;5017247;28;20025;-57
2022/07/24 06:22:45;;;;;;;22.17;19.02;;;;;;;19.01;88.38;101830.84;5022125;28;20061;-57
2022/07/24 06:25:10;;;;;;;20.75;18.65;;;;;;;18.98;87.52;101828.19;5026685;28;20021;-57
2022/07/24 06:27:44;;;;;;;18.98;17.15;;;;;;;19.10;87.32;101830.97;5025299;28;20021;-58
2022/07/24 06:30:14;;;;;;;20.65;18.35;;;;;;;19.30;86.98;101827.72;5024881;28;20025;-57
2022/07/24 06:32:39;;;;;;;19.73;17.73;;;;;;;19.44;86.13;101823.50;5024853;28;20073;-58
2022/07/24 06:35:05;;;;;;;20.35;18.00;;;;;;;19.63;84.88;101820.16;5021318;28;20429;-58
2022/07/24 06:37:30;;;;;;;19.25;16.88;;;;;;;19.65;82.41;101823.69;5025867;28;20029;-57
2022/07/24 06:39:56;;;;;;;17.13;15.40;;;;;;;19.76;83.21;101829.03;5025445;28;20021;-57
2022/07/24 06:42:21;;;;;;;17.10;15.30;;;;;;;19.95;83.51;101826.59;5026654;28;20080;-56
2022/07/24 06:44:46;;;;;;;14.60;12.93;;;;;;;20.20;83.74;101832.06;5025359;28;20104;-57
2022/07/24 06:47:11;;;;;;;14.10;12.48;;;;;;;20.47;83.18;101825.25;5019935;28;20029;-58
2022/07/24 06:49:37;;;;;;;13.88;12.48;;;;;;;20.67;80.53;101827.97;5023823;28;20450;-57
2022/07/24 06:52:02;;;;;;;11.80;10.70;;;;;;;20.73;77.34;101821.84;5025767;28;20033;-56
2022/07/24 06:54:28;;;;;;;12.85;11.48;;;;;;;20.84;75.84;101820.16;5022630;28;20029;-57
2022/07/24 06:56:53;;;;;;;11.30;9.55;;;;;;;20.86;74.66;101823.69;5027284;28;20120;-58
2022/07/24 06:59:18;;;;;;;10.52;9.50;;;;;;;20.85;73.09;101826.31;5021442;28;20029;-58
2022/07/24 07:01:44;;;;;;;11.48;9.00;;;;;;;21.02;73.69;101817.63;5025195;28;20393;-58
2022/07/24 07:04:09;;;;;;;9.40;8.07;;;;;;;21.23;73.81;101812.41;5026831;28;20057;-57
2022/07/24 07:06:34;;;;;;;8.95;8.15;;;;;;;21.44;71.26;101812.47;5022229;28;20029;-58
2022/07/24 07:08:59;;;;;;;10.38;7.85;;;;;;;21.46;69.78;101818.63;5013189;28;20377;-58
2022/07/24 07:11:25;;;;;;;8.80;7.85;;;;;;;21.41;68.93;101810.69;5008117;28;20025;-58
2022/07/24 07:13:50;;;;;;;10.52;7.75;;;;;;;21.52;68.64;101808.09;5015521;28;20186;-57
2022/07/24 07:16:15;;;;;;;13.13;8.05;;;;;;;21.48;67.35;101808.94;5008623;28;20105;-57
2022/07/24 07:18:42;;;;;;;8.20;6.50;;;;;;;21.59;68.64;101808.97;5009813;28;20030;-58
2022/07/24 07:21:07;;;;;;;6.35;5.75;;;;;;;21.76;69.67;101819.53;5020826;28;20539;-58
2022/07/24 07:23:32;;;;;;;6.07;5.47;;;;;;;21.92;67.92;101817.81;5021656;28;20037;-56
2022/07/24 07:25:57;;;;;;;6.68;6.07;;;;;;;21.99;66.91;101831.00;5008630;28;20381;-57
2022/07/24 07:28:23;;;;;;;7.03;6.35;;;;;;;22.15;66.16;101835.38;5012470;28;20084;-58
2022/07/24 07:30:48;;;;;;;5.95;5.35;;;;;;;22.20;64.67;101832.72;5012865;28;20383;-58
2022/07/24 07:33:14;;;;;;;6.80;5.82;;;;;;;22.35;63.78;101829.22;5006907;28;20076;-57
2022/07/24 07:35:39;;;;;;;6.95;6.25;;;;;;;22.49;63.04;101825.66;5007942;28;20096;-58
2022/07/24 07:38:04;;;;;;;5.32;4.82;;;;;;;22.66;63.95;101817.72;5007990;28;20025;-57
2022/07/24 07:40:30;;;;;;;5.68;4.35;;;;;;;22.78;62.85;101827.34;5007182;28;20348;-58
2022/07/24 07:42:55;;;;;;;5.15;4.65;;;;;;;22.84;60.27;101821.19;5007333;28;20064;-58
2022/07/24 07:45:21;;;;;;;5.63;4.22;;;;;;;22.82;59.20;101820.28;5005528;28;20279;-59
2022/07/24 07:47:46;;;;;;;4.95;3.70;;;;;;;22.94;59.75;101820.25;5007127;28;20030;-57
2022/07/24 07:50:12;;;;;;;5.05;4.65;;;;;;;23.12;58.95;101823.69;5008968;28;20346;-58
2022/07/24 07:52:38;;;;;;;4.60;4.05;;;;;;;22.72;57.41;101820.31;5011683;28;20075;-58
2022/07/24 07:55:04;;;;;;;4.18;2.92;;;;;;;22.83;56.13;101827.34;5009208;28;20161;-57
2022/07/24 07:57:29;;;;;;;3.30;3.00;;;;;;;22.96;57.04;101821.13;5005928;28;20026;-57
2022/07/24 07:59:55;;;;;;;3.42;3.05;;;;;;;23.15;56.78;101823.69;5023862;28;20021;-57
2022/07/24 08:02:21;;;;;;;3.17;2.33;;;;;;;23.37;56.11;101808.56;5015271;28;20540;-57
2022/07/24 08:04:46;;;;;;;4.80;2.75;;;;;;;23.61;54.57;101805.78;5017250;28;20571;-57
2022/07/24 08:07:12;;;;;;;3.58;2.33;;;;;;;23.71;54.22;101810.09;5011831;28;20080;-57
2022/07/24 08:09:37;;;;;;;2.50;2.30;;;;;;;23.95;54.59;101799.31;5008087;28;20478;-57
2022/07/24 08:12:03;;;;;;;2.75;2.15;;;;;;;24.12;54.00;101801.81;5007742;28;20037;-58
2022/07/24 08:14:29;;;;;;;4.85;2.60;;;;;;;24.51;53.50;101809.38;5005793;28;20022;-58
2022/07/24 08:16:54;;;;;;;3.10;2.60;;;;;;;24.48;49.89;101809.44;5008862;28;20045;-58
2022/07/24 08:19:19;;;;;;;3.42;2.30;;;;;;;24.39;49.31;101810.41;5007293;28;20256;-58
2022/07/24 08:21:46;;;;;;;2.38;2.00;;;;;;;24.57;49.29;101813.75;5025105;28;20047;-58
2022/07/24 08:24:13;;;;;;;3.75;2.13;;;;;;;24.82;49.09;101806.34;5030494;28;20029;-58
2022/07/24 08:26:38;;;;;;;3.30;2.03;;;;;;;24.98;49.44;101807.97;5031301;28;20033;-57
2022/07/24 08:29:04;;;;;;;2.78;2.08;;;;;;;25.06;49.81;101806.06;5031714;28;20366;-58
2022/07/24 08:31:29;;;;;;;2.10;1.83;;;;;;;25.39;50.06;101803.84;5031139;28;20033;-57
2022/07/24 08:33:55;;;;;;;2.47;2.28;;;;;;;25.59;47.99;101805.31;5031403;28;20030;-57
2022/07/24 08:36:20;;;;;;;3.30;2.20;;;;;;;25.89;48.97;101813.69;5031532;28;20028;-57
2022/07/24 08:38:45;;;;;;;2.00;1.88;;;;;;;26.03;46.44;101812.53;5031460;28;20124;-58
2022/07/24 08:41:12;;;;;;;1.98;1.83;;;;;;;26.08;46.78;101807.16;5030722;28;20041;-58
2022/07/24 08:43:38;;;;;;;1.90;1.70;;;;;;;26.28;47.29;101809.47;5031322;28;20363;-58
2022/07/24 08:46:06;;;;;;;1.90;1.75;;;;;;;26.51;46.88;101805.50;5030281;28;20051;-59
2022/07/24 08:48:32;;;;;;;2.50;2.30;;;;;;;26.55;45.14;101803.66;5031009;28;20045;-58
2022/07/24 08:50:58;;;;;;;2.35;2.15;;;;;;;26.60;44.79;101810.63;5031085;28;20029;-58
2022/07/24 08:53:23;;;;;;;2.55;1.88;;;;;;;26.55;46.01;101801.84;5030969;28;20381;-58
2022/07/24 08:55:49;;;;;;;2.00;1.90;;;;;;;26.74;45.37;101794.41;5030417;28;20112;-58
2022/07/24 08:58:15;;;;;;;2.15;1.95;;;;;;;26.59;46.23;101792.03;5031225;28;20403;-58
2022/07/24 09:00:41;;;;;;;2.30;2.10;;;;;;;26.28;45.96;101797.94;5031341;28;20048;-58
2022/07/24 09:03:07;;;;;;;2.10;2.00;;;;;;;26.50;45.05;101795.75;5030908;28;20116;-58
2022/07/24 09:05:34;;;;;;;2.30;1.95;;;;;;;26.47;45.42;101795.81;5030964;28;20021;-56
2022/07/24 09:08:14;;;;;;;2.13;1.92;;;;;;;26.58;45.97;101798.28;5030514;28;20525;-58
2022/07/24 09:10:39;;;;;;;2.00;1.90;;;;;;;26.86;47.03;101784.38;5030665;28;20032;-58
2022/07/24 09:13:13;;;;;;;1.65;1.55;;;;;;;27.10;45.98;101787.44;5029295;28;20030;-58
2022/07/24 09:15:47;;;;;;;3.35;2.25;;;;;;;26.95;45.52;101786.84;5019462;28;20112;-59
2022/07/24 09:18:26;;;;;;;2.65;2.35;;;;;;;27.21;45.70;101789.84;5018431;28;20030;-58
2022/07/24 09:20:52;;;;;;;3.00;1.90;;;;;;;27.23;44.16;101788.03;5030367;28;20057;-58
2022/07/24 09:23:19;;;;;;;2.28;2.10;;;;;;;27.27;45.34;101781.72;5030416;28;20298;-58
2022/07/24 09:25:51;;;;;;;2.60;2.40;;;;;;;27.27;44.71;101779.06;5030147;28;20134;-58
2022/07/24 09:28:16;;;;;;;3.08;2.22;;;;;;;27.39;46.45;101777.00;5019112;28;20148;-59
2022/07/24 09:30:43;;;;;;;2.22;2.03;;;;;;;27.28;44.88;101775.50;5025806;28;20572;-58
2022/07/24 09:33:11;;;;;;;1.98;1.83;;;;;;;27.38;45.03;101775.28;5029265;28;20029;-59
2022/07/24 09:35:42;;;;;;;2.17;1.98;;;;;;;27.43;46.35;101768.91;5029998;28;20036;-58
2022/07/24 09:38:19;;;;;;;3.15;2.42;;;;;;;27.30;44.52;101772.78;5009257;28;20026;-58
2022/07/24 09:40:49;;;;;;;1.90;1.80;;;;;;;27.30;45.67;101770.13;5024766;28;20036;-58
2022/07/24 09:43:40;;;;;;;2.50;2.30;;;;;;;27.34;44.95;101764.69;5030166;28;20108;-58
2022/07/24 09:46:11;;;;;;;1.88;1.77;;;;;;;27.65;46.66;101765.72;5027577;28;20041;-58
2022/07/24 09:48:38;;;;;;;2.25;1.95;;;;;;;27.81;44.19;101757.38;5030109;28;20065;-58
2022/07/24 09:51:10;;;;;;;1.70;1.60;;;;;;;27.75;43.22;101758.41;5029829;28;20505;-58
2022/07/24 09:53:36;;;;;;;2.17;1.73;;;;;;;27.97;45.07;101762.28;5030068;28;20025;-58
2022/07/24 09:56:06;;;;;;;1.77;1.63;;;;;;;27.75;43.43;101758.41;5030177;28;20355;-58
2022/07/24 09:58:33;;;;;;;2.83;1.75;;;;;;;27.73;44.38;101754.91;5029980;28;20439;-58
2022/07/24 10:01:00;;;;;;;1.77;1.67;;;;;;;27.73;44.43;101754.91;5029935;28;20120;-59
2022/07/24 10:03:31;;;;;;;1.67;1.55;;;;;;;27.73;44.31;101754.03;5030503;28;20597;-57
2022/07/24 10:06:02;;;;;;;1.75;1.65;;;;;;;27.88;44.02;101743.00;5029526;28;20057;-58
2022/07/24 10:08:28;;;;;;;2.22;1.98;;;;;;;28.11;44.99;101753.91;5029831;28;20060;-58
2022/07/24 10:10:54;;;;;;;1.60;1.50;;;;;;;28.21;43.85;101754.53;5029955;28;20095;-58
2022/07/24 10:13:19;;;;;;;2.58;1.85;;;;;;;28.12;43.50;101750.31;5029851;28;20746;-59
2022/07/24 10:15:58;;;;;;;2.53;2.00;;;;;;;28.27;44.52;101741.03;5029618;28;20421;-58
2022/07/24 10:18:37;;;;;;;2.08;1.77;;;;;;;28.08;43.67;101743.34;5015691;28;20449;-57
2022/07/24 10:21:10;;;;;;;2.50;1.67;;;;;;;27.89;43.79;101733.19;5016779;28;20033;-58
2022/07/24 10:24:08;;;;;;;2.22;1.73;;;;;;;28.03;43.90;101733.69;5029598;28;20021;-58
2022/07/24 10:26:51;;;;;;;2.22;1.77;;;;;;;28.17;44.09;101738.63;5007692;28;20048;-59
2022/07/24 10:29:24;;;;;;;1.60;1.50;;;;;;;27.85;42.31;101734.22;5028060;28;20014;-59
2022/07/24 10:31:54;;;;;;;1.88;1.77;;;;;;;28.17;44.04;101733.28;5029489;28;20021;-58
2022/07/24 10:34:29;;;;;;;2.80;1.85;;;;;;;28.31;43.12;101728.50;5029350;28;20503;-58
2022/07/24 10:37:07;;;;;;;2.28;2.08;;;;;;;28.56;43.27;101722.47;5029724;28;20033;-58
2022/07/24 10:39:51;;;;;;;1.80;1.70;;;;;;;28.81;43.81;101716.34;5029173;28;20469;-58
2022/07/24 10:42:16;;;;;;;2.25;2.05;;;;;;;29.03;43.93;101716.59;5027880;28;20318;-59
2022/07/24 10:44:44;;;;;;;4.85;2.28;;;;;;;29.00;41.71;101720.22;5029057;28;20473;-58
2022/07/24 10:47:13;;;;;;;2.08;1.98;;;;;;;29.20;43.66;101713.34;5029339;28;20075;-58
2022/07/24 10:49:38;;;;;;;3.70;1.80;;;;;;;29.17;41.80;101717.91;5029365;28;20048;-58
2022/07/24 10:52:04;;;;;;;2.17;1.98;;;;;;;29.12;41.88;101707.41;5029264;28;20063;-58
2022/07/24 10:54:30;;;;;;;3.65;2.47;;;;;;;29.14;40.77;101713.56;5029554;28;20029;-58
2022/07/24 10:56:55;;;;;;;2.33;1.95;;;;;;;28.99;41.24;101709.56;5029330;28;20033;-58
2022/07/24 10:59:37;;;;;;;1.92;1.77;;;;;;;28.82;41.58;101696.78;5029060;28;20501;-59
2022/07/24 11:02:29;;;;;;;2.67;2.15;;;;;;;28.64;41.07;101701.75;5028932;28;20025;-58
2022/07/24 11:05:23;;;;;;;2.30;2.03;;;;;;;28.65;42.50;101701.75;5029435;28;20021;-59
2022/07/24 11:08:20;;;;;;;3.63;2.28;;;;;;;28.86;43.62;101693.09;5029118;28;20041;-59
2022/07/24 11:10:52;;;;;;;3.17;2.25;;;;;;;28.93;42.03;101699.97;5029136;28;20091;-58
2022/07/24 11:13:33;;;;;;;2.35;2.15;;;;;;;29.17;43.89;101702.78;5028405;28;20025;-58